createdAt,value
2023-07-18T00:04:23.455Z,21.21
2023-07-18T00:09:26.747Z,21.72
2023-07-18T00:14:31.117Z,22.12
2023-07-18T00:19:35.044Z,22.35
2023-07-18T00:24:38.147Z,22.51
2023-07-18T00:29:41.156Z,22.62
2023-07-18T00:34:45.744Z,22.52
2023-07-18T00:39:48.806Z,20.81
2023-07-18T00:44:52.531Z,19.54
2023-07-18T00:49:55.657Z,20.43
2023-07-18T00:54:59.000Z,20.47
2023-07-18T01:00:02.661Z,20.67
2023-07-18T01:05:06.537Z,20.98
2023-07-18T01:10:28.473Z,21.27
2023-07-18T01:15:35.523Z,21.58
2023-07-18T01:20:38.738Z,21.86
2023-07-18T01:25:42.810Z,22.13
2023-07-18T01:30:46.438Z,22.27
2023-07-18T01:35:49.555Z,22.43
2023-07-18T01:40:52.541Z,22.25
2023-07-18T01:46:01.742Z,20.56
2023-07-18T01:51:05.226Z,19.30
2023-07-18T01:56:08.425Z,20.21
2023-07-18T02:01:11.480Z,20.44
2023-07-18T02:06:14.543Z,20.42
2023-07-18T02:11:17.636Z,20.75
2023-07-18T02:16:21.798Z,20.80
2023-07-18T02:21:24.789Z,20.61
2023-07-18T02:26:27.797Z,20.44
2023-07-18T02:31:31.111Z,20.35
2023-07-18T02:36:34.318Z,20.44
2023-07-18T02:41:38.108Z,20.57
2023-07-18T02:46:41.179Z,20.61
2023-07-18T02:51:44.379Z,20.71
2023-07-18T02:56:47.822Z,20.77
2023-07-18T03:01:55.872Z,20.78
2023-07-18T03:07:01.883Z,20.69
2023-07-18T03:12:07.970Z,20.44
2023-07-18T03:17:12.921Z,20.49
2023-07-18T03:22:16.229Z,20.42
2023-07-18T03:27:19.662Z,20.44
2023-07-18T03:32:22.723Z,20.47
2023-07-18T03:37:28.526Z,20.46
2023-07-18T03:42:31.532Z,20.66
2023-07-18T03:47:34.605Z,20.69
2023-07-18T03:52:38.107Z,20.71
2023-07-18T03:57:41.890Z,20.81
2023-07-18T04:02:47.567Z,20.69
2023-07-18T04:07:51.077Z,20.65
2023-07-18T04:12:54.288Z,20.67
2023-07-18T04:17:57.228Z,20.78
2023-07-18T04:23:00.847Z,20.91
2023-07-18T04:28:04.239Z,20.83
2023-07-18T04:33:12.392Z,20.94
2023-07-18T04:38:15.677Z,21.11
2023-07-18T04:43:18.688Z,21.16
2023-07-18T04:48:22.606Z,21.25
2023-07-18T04:53:30.631Z,21.52
2023-07-18T04:58:33.767Z,21.61
2023-07-18T05:03:48.309Z,21.85
2023-07-18T05:08:59.317Z,21.29
2023-07-18T05:14:02.318Z,20.42
2023-07-18T05:19:05.329Z,21.43
2023-07-18T05:24:08.438Z,21.86
2023-07-18T05:29:11.452Z,20.61
2023-07-18T05:34:14.450Z,20.75
2023-07-18T05:39:17.460Z,21.72
2023-07-18T05:44:20.572Z,21.89
2023-07-18T05:49:23.576Z,20.90
2023-07-18T05:54:26.792Z,21.23
2023-07-18T05:59:29.796Z,22.64
2023-07-18T06:04:32.800Z,22.10
2023-07-18T06:09:35.909Z,22.36
2023-07-18T06:14:38.920Z,23.07
2023-07-18T06:19:42.042Z,22.76
2023-07-18T06:24:46.566Z,24.09
2023-07-18T06:29:49.477Z,23.55
2023-07-18T06:34:52.685Z,22.26
2023-07-18T06:39:57.024Z,21.82
2023-07-18T06:45:00.032Z,22.01
2023-07-18T06:50:03.169Z,22.44
2023-07-18T06:55:12.108Z,22.39
2023-07-18T07:00:16.121Z,22.65
2023-07-18T07:05:19.230Z,23.19
2023-07-18T07:10:22.545Z,23.79
2023-07-18T07:15:25.555Z,24.15
2023-07-18T07:20:30.144Z,24.64
2023-07-18T07:25:33.609Z,25.18
2023-07-18T07:30:36.709Z,25.08
2023-07-18T07:35:39.830Z,25.13
2023-07-18T07:40:42.756Z,24.85
2023-07-18T07:45:45.746Z,24.69
2023-07-18T07:50:49.872Z,25.45
2023-07-18T07:55:53.202Z,25.73
2023-07-18T08:00:56.194Z,25.80
2023-07-18T08:06:00.222Z,26.08
2023-07-18T08:11:03.234Z,26.62
2023-07-18T08:16:07.028Z,26.59
2023-07-18T08:21:10.072Z,26.82
2023-07-18T08:26:13.086Z,27.75
2023-07-18T08:31:16.486Z,28.44
2023-07-18T08:36:20.019Z,28.81
2023-07-18T08:41:23.331Z,28.34
2023-07-18T08:46:27.430Z,27.81
2023-07-18T08:51:32.310Z,27.77
2023-07-18T08:56:35.251Z,27.36
2023-07-18T09:01:47.274Z,26.72
2023-07-18T09:06:56.289Z,27.09
2023-07-18T09:12:04.635Z,27.80
2023-07-18T09:17:10.359Z,27.82
2023-07-18T09:22:15.570Z,28.32
2023-07-18T09:27:20.610Z,28.93
2023-07-18T09:32:25.276Z,29.22
2023-07-18T09:37:28.989Z,29.63
2023-07-18T09:42:33.621Z,30.47
2023-07-18T09:47:38.183Z,30.54
2023-07-18T09:52:47.116Z,30.91
2023-07-18T09:57:50.626Z,31.72
2023-07-18T10:02:54.498Z,31.61
2023-07-18T10:07:58.219Z,31.55
2023-07-18T10:13:02.604Z,31.86
2023-07-18T10:18:18.750Z,31.75
2023-07-18T10:23:41.187Z,32.11
2023-07-18T10:28:48.238Z,32.52
2023-07-18T10:34:11.315Z,32.33
2023-07-18T10:39:14.588Z,31.01
2023-07-18T10:44:17.793Z,30.02
2023-07-18T10:49:30.042Z,30.13
2023-07-18T10:54:33.024Z,30.51
2023-07-18T10:59:38.090Z,29.46
2023-07-18T11:04:41.089Z,30.73
2023-07-18T11:09:45.322Z,31.20
2023-07-18T11:14:48.425Z,31.07
2023-07-18T11:19:51.538Z,32.08
2023-07-18T11:24:54.761Z,32.85
2023-07-18T11:29:58.169Z,33.73
2023-07-18T11:35:02.169Z,33.72
2023-07-18T11:40:06.826Z,34.33
2023-07-18T11:45:10.927Z,35.08
2023-07-18T11:50:14.749Z,34.07
2023-07-18T11:55:20.380Z,34.18
2023-07-18T12:00:23.725Z,34.30
2023-07-18T12:05:26.800Z,32.90
2023-07-18T12:10:30.111Z,31.27
2023-07-18T12:15:34.709Z,29.94
2023-07-18T12:20:39.403Z,28.20
2023-07-18T12:25:42.408Z,27.07
2023-07-18T12:30:45.776Z,27.01
2023-07-18T12:35:49.031Z,27.10
2023-07-18T12:40:52.253Z,26.57
2023-07-18T12:45:55.875Z,26.91
2023-07-18T12:50:59.780Z,26.50
2023-07-18T12:56:02.734Z,25.95
2023-07-18T13:01:06.123Z,25.70
2023-07-18T13:06:09.749Z,25.79
2023-07-18T13:11:12.675Z,25.80
2023-07-18T13:16:15.760Z,26.33
2023-07-18T13:21:18.871Z,28.52
2023-07-18T13:26:23.509Z,29.97
2023-07-18T13:31:26.546Z,30.52
2023-07-18T13:36:31.361Z,30.07
2023-07-18T13:41:34.884Z,31.16
2023-07-18T13:46:38.791Z,33.15
2023-07-18T13:51:43.765Z,34.02
2023-07-18T13:56:46.684Z,35.15
2023-07-18T14:01:49.711Z,35.09
2023-07-18T14:06:52.681Z,34.01
2023-07-18T14:11:55.883Z,32.82
2023-07-18T14:16:59.122Z,33.75
2023-07-18T14:22:02.131Z,31.88
2023-07-18T14:27:05.854Z,29.39
2023-07-18T14:32:10.842Z,28.15
2023-07-18T14:37:14.217Z,27.87
2023-07-18T14:42:17.213Z,27.19
2023-07-18T14:47:20.427Z,26.61
2023-07-18T14:52:24.031Z,25.98
2023-07-18T14:57:27.058Z,25.27
2023-07-18T15:02:30.083Z,24.41
2023-07-18T15:07:33.178Z,23.92
2023-07-18T15:12:39.555Z,23.91
2023-07-18T15:17:44.803Z,24.17
2023-07-18T15:22:52.809Z,24.48
2023-07-18T15:27:56.158Z,24.79
2023-07-18T15:33:05.969Z,24.93
2023-07-18T15:38:22.155Z,24.90
2023-07-18T15:43:25.156Z,24.69
2023-07-18T15:48:28.866Z,24.45
2023-07-18T15:53:33.848Z,24.16
2023-07-18T15:58:36.889Z,23.81
2023-07-18T16:03:40.135Z,23.48
2023-07-18T16:08:43.803Z,23.16
2023-07-18T16:13:47.588Z,23.00
2023-07-18T16:18:51.622Z,22.96
2023-07-18T16:23:54.640Z,22.95
2023-07-18T16:28:58.043Z,22.90
2023-07-18T16:34:00.951Z,22.78
2023-07-18T16:39:03.895Z,22.75
2023-07-18T16:44:06.884Z,22.71
2023-07-18T16:49:09.977Z,22.67
2023-07-18T16:54:12.981Z,22.61
2023-07-18T16:59:15.986Z,22.58
2023-07-18T17:04:19.052Z,22.58
2023-07-18T17:09:22.111Z,22.73
2023-07-18T17:14:25.249Z,22.91
2023-07-18T17:19:28.224Z,22.88
2023-07-18T17:24:31.690Z,22.70
2023-07-18T17:29:35.055Z,22.43
2023-07-18T17:34:38.166Z,22.30
2023-07-18T17:39:43.470Z,22.30
2023-07-18T17:44:46.458Z,22.34
2023-07-18T17:49:49.434Z,22.27
2023-07-18T17:54:52.458Z,22.16
2023-07-18T17:59:55.655Z,21.97
2023-07-18T18:04:58.887Z,21.74
2023-07-18T18:10:01.770Z,21.52
2023-07-18T18:15:05.376Z,21.32
2023-07-18T18:20:09.229Z,21.11
2023-07-18T18:25:12.243Z,20.91
2023-07-18T18:30:15.714Z,20.74
2023-07-18T18:35:18.754Z,20.56
2023-07-18T18:40:22.075Z,20.37
2023-07-18T18:45:25.280Z,20.17
2023-07-18T18:50:28.393Z,19.96
2023-07-18T18:55:34.073Z,19.76
2023-07-18T19:00:37.391Z,19.53
2023-07-18T19:05:40.481Z,19.35
2023-07-18T19:10:56.375Z,19.19
2023-07-18T19:16:08.136Z,19.07
2023-07-18T19:21:11.212Z,18.96
2023-07-18T19:26:14.424Z,18.85
2023-07-18T19:31:17.833Z,18.72
2023-07-18T19:36:21.677Z,18.57
2023-07-18T19:41:24.786Z,18.39
2023-07-18T19:46:27.920Z,18.21
2023-07-18T19:51:31.402Z,18.02
2023-07-18T19:56:36.563Z,17.85
2023-07-18T20:01:39.730Z,17.70
2023-07-18T20:06:42.776Z,17.54
2023-07-18T20:11:45.992Z,17.39
2023-07-18T20:16:49.043Z,17.25
2023-07-18T20:21:52.218Z,17.10
2023-07-18T20:26:55.222Z,16.97
2023-07-18T20:31:58.455Z,16.88
2023-07-18T20:37:01.963Z,16.79
2023-07-18T20:42:06.186Z,16.74
2023-07-18T20:47:10.017Z,16.72
2023-07-18T20:52:13.534Z,16.72
2023-07-18T20:57:16.744Z,16.74
2023-07-18T21:02:19.680Z,16.76
2023-07-18T21:07:23.071Z,16.76
2023-07-18T21:12:26.075Z,16.71
2023-07-18T21:17:29.181Z,16.64
2023-07-18T21:22:32.858Z,16.54
2023-07-18T21:27:35.913Z,16.40
2023-07-18T21:32:40.098Z,16.27
2023-07-18T21:37:43.698Z,16.18
2023-07-18T21:42:48.676Z,16.10
2023-07-18T21:47:51.640Z,16.01
2023-07-18T21:52:54.944Z,15.92
2023-07-18T21:57:58.148Z,16.52
2023-07-18T22:03:01.736Z,18.55
2023-07-18T22:08:05.590Z,19.78
2023-07-18T22:13:08.616Z,19.88
2023-07-18T22:18:25.723Z,18.60
2023-07-18T22:23:31.722Z,17.75
2023-07-18T22:28:34.725Z,17.19
2023-07-18T22:33:37.665Z,16.76
2023-07-18T22:38:40.944Z,16.37
2023-07-18T22:43:43.952Z,16.03
2023-07-18T22:48:46.856Z,16.44
2023-07-18T22:53:49.864Z,18.26
2023-07-18T22:58:52.869Z,19.33
2023-07-18T23:03:55.911Z,20.00
2023-07-18T23:08:59.603Z,19.91
2023-07-18T23:14:02.630Z,18.48
2023-07-18T23:19:05.626Z,17.53
2023-07-18T23:24:08.725Z,16.87
2023-07-18T23:29:11.839Z,17.03
2023-07-18T23:34:14.838Z,18.67
2023-07-18T23:39:17.856Z,19.59
2023-07-18T23:44:20.860Z,20.16
2023-07-18T23:49:23.864Z,19.96
2023-07-18T23:54:26.968Z,18.34
2023-07-18T23:59:30.086Z,17.30
